sensor_id;sensor_type;location;lat;lon;timestamp;P1;durP1;ratioP1;P2;durP2;ratioP2
69779;SDS011;57052;55.602;38.096;2022-09-29T00:00:58;7.82;;;4.72;;
69779;SDS011;57052;55.602;38.096;2022-09-29T00:03:26;11.63;;;4.85;;
69779;SDS011;57052;55.602;38.096;2022-09-29T00:05:53;9.25;;;4.72;;
69779;SDS011;57052;55.602;38.096;2022-09-29T00:08:21;11.32;;;5.18;;
69779;SDS011;57052;55.602;38.096;2022-09-29T00:10:48;9.80;;;4.75;;
69779;SDS011;57052;55.602;38.096;2022-09-29T00:13:14;10.48;;;4.90;;
69779;SDS011;57052;55.602;38.096;2022-09-29T00:15:40;9.15;;;4.60;;
69779;SDS011;57052;55.602;38.096;2022-09-29T00:18:06;8.52;;;4.90;;
69779;SDS011;57052;55.602;38.096;2022-09-29T00:20:33;8.52;;;4.90;;
69779;SDS011;57052;55.602;38.096;2022-09-29T00:22:59;9.32;;;4.82;;
69779;SDS011;57052;55.602;38.096;2022-09-29T00:25:25;8.38;;;4.68;;
69779;SDS011;57052;55.602;38.096;2022-09-29T00:27:51;9.65;;;4.70;;
69779;SDS011;57052;55.602;38.096;2022-09-29T00:30:17;8.00;;;4.57;;
69779;SDS011;57052;55.602;38.096;2022-09-29T00:32:42;9.00;;;4.47;;
69779;SDS011;57052;55.602;38.096;2022-09-29T00:35:08;10.32;;;5.30;;
69779;SDS011;57052;55.602;38.096;2022-09-29T00:37:34;10.40;;;5.57;;
69779;SDS011;57052;55.602;38.096;2022-09-29T00:40:00;14.50;;;5.25;;
69779;SDS011;57052;55.602;38.096;2022-09-29T00:42:28;8.90;;;5.22;;
69779;SDS011;57052;55.602;38.096;2022-09-29T00:45:11;10.48;;;4.93;;
69779;SDS011;57052;55.602;38.096;2022-09-29T00:47:38;8.63;;;5.07;;
69779;SDS011;57052;55.602;38.096;2022-09-29T00:50:19;10.45;;;4.90;;
69779;SDS011;57052;55.602;38.096;2022-09-29T00:52:54;9.13;;;4.43;;
69779;SDS011;57052;55.602;38.096;2022-09-29T00:55:33;8.80;;;4.72;;
69779;SDS011;57052;55.602;38.096;2022-09-29T01:00:50;8.90;;;4.07;;
69779;SDS011;57052;55.602;38.096;2022-09-29T01:03:16;8.73;;;4.30;;
69779;SDS011;57052;55.602;38.096;2022-09-29T01:06:09;6.40;;;3.65;;
69779;SDS011;57052;55.602;38.096;2022-09-29T01:08:41;8.50;;;3.85;;
69779;SDS011;57052;55.602;38.096;2022-09-29T01:11:11;8.80;;;4.00;;
69779;SDS011;57052;55.602;38.096;2022-09-29T01:13:37;6.97;;;3.90;;
69779;SDS011;57052;55.602;38.096;2022-09-29T01:16:05;9.25;;;3.85;;
69779;SDS011;57052;55.602;38.096;2022-09-29T01:18:31;8.10;;;3.63;;
69779;SDS011;57052;55.602;38.096;2022-09-29T01:21:12;6.40;;;3.60;;
69779;SDS011;57052;55.602;38.096;2022-09-29T01:34:47;9.00;;;3.90;;
69779;SDS011;57052;55.602;38.096;2022-09-29T01:42:44;8.63;;;3.70;;
69779;SDS011;57052;55.602;38.096;2022-09-29T01:45:31;6.93;;;3.70;;
69779;SDS011;57052;55.602;38.096;2022-09-29T01:48:03;6.65;;;3.58;;
69779;SDS011;57052;55.602;38.096;2022-09-29T01:50:54;7.18;;;3.50;;
69779;SDS011;57052;55.602;38.096;2022-09-29T01:53:27;6.63;;;3.83;;
69779;SDS011;57052;55.602;38.096;2022-09-29T01:56:00;6.22;;;3.42;;
69779;SDS011;57052;55.602;38.096;2022-09-29T01:58:39;7.68;;;3.75;;
69779;SDS011;57052;55.602;38.096;2022-09-29T02:01:13;7.13;;;3.53;;
69779;SDS011;57052;55.602;38.096;2022-09-29T02:03:53;8.68;;;3.72;;
69779;SDS011;57052;55.602;38.096;2022-09-29T02:06:22;7.25;;;4.00;;
69779;SDS011;57052;55.602;38.096;2022-09-29T02:08:52;9.02;;;4.72;;
69779;SDS011;57052;55.602;38.096;2022-09-29T02:11:19;8.98;;;3.80;;
69779;SDS011;57052;55.602;38.096;2022-09-29T02:16:29;7.78;;;4.13;;
69779;SDS011;57052;55.602;38.096;2022-09-29T02:19:21;8.77;;;3.97;;
69779;SDS011;57052;55.602;38.096;2022-09-29T02:21:52;9.93;;;4.30;;
69779;SDS011;57052;55.602;38.096;2022-09-29T02:24:19;9.27;;;4.18;;
69779;SDS011;57052;55.602;38.096;2022-09-29T02:26:46;12.73;;;4.85;;
69779;SDS011;57052;55.602;38.096;2022-09-29T02:29:12;15.88;;;4.82;;
69779;SDS011;57052;55.602;38.096;2022-09-29T02:31:38;12.10;;;4.10;;
69779;SDS011;57052;55.602;38.096;2022-09-29T02:34:05;12.35;;;4.43;;
69779;SDS011;57052;55.602;38.096;2022-09-29T02:56:08;14.98;;;5.18;;
69779;SDS011;57052;55.602;38.096;2022-09-29T02:58:50;14.80;;;5.07;;
69779;SDS011;57052;55.602;38.096;2022-09-29T03:01:18;15.60;;;6.18;;
69779;SDS011;57052;55.602;38.096;2022-09-29T03:03:44;14.95;;;5.10;;
69779;SDS011;57052;55.602;38.096;2022-09-29T03:06:10;18.73;;;5.35;;
69779;SDS011;57052;55.602;38.096;2022-09-29T03:08:37;15.00;;;5.20;;
69779;SDS011;57052;55.602;38.096;2022-09-29T03:11:03;17.52;;;4.72;;
69779;SDS011;57052;55.602;38.096;2022-09-29T03:13:29;16.23;;;5.25;;
69779;SDS011;57052;55.602;38.096;2022-09-29T03:15:54;9.90;;;4.75;;
69779;SDS011;57052;55.602;38.096;2022-09-29T03:18:20;11.93;;;4.53;;
69779;SDS011;57052;55.602;38.096;2022-09-29T03:20:47;10.63;;;5.10;;
69779;SDS011;57052;55.602;38.096;2022-09-29T03:23:12;15.15;;;5.47;;
69779;SDS011;57052;55.602;38.096;2022-09-29T03:25:41;13.20;;;5.00;;
69779;SDS011;57052;55.602;38.096;2022-09-29T03:28:07;16.83;;;5.93;;
69779;SDS011;57052;55.602;38.096;2022-09-29T03:30:32;14.52;;;5.60;;
69779;SDS011;57052;55.602;38.096;2022-09-29T03:32:58;16.60;;;5.55;;
69779;SDS011;57052;55.602;38.096;2022-09-29T03:35:23;21.38;;;5.93;;
69779;SDS011;57052;55.602;38.096;2022-09-29T03:37:49;13.95;;;5.47;;
69779;SDS011;57052;55.602;38.096;2022-09-29T03:40:15;12.13;;;5.88;;
69779;SDS011;57052;55.602;38.096;2022-09-29T03:42:40;13.10;;;5.43;;
69779;SDS011;57052;55.602;38.096;2022-09-29T03:45:06;12.40;;;5.75;;
69779;SDS011;57052;55.602;38.096;2022-09-29T03:47:32;17.70;;;5.70;;
69779;SDS011;57052;55.602;38.096;2022-09-29T03:49:58;12.82;;;5.82;;
69779;SDS011;57052;55.602;38.096;2022-09-29T03:52:23;11.80;;;5.50;;
69779;SDS011;57052;55.602;38.096;2022-09-29T03:54:51;13.00;;;5.80;;
69779;SDS011;57052;55.602;38.096;2022-09-29T03:57:19;9.43;;;5.20;;
69779;SDS011;57052;55.602;38.096;2022-09-29T03:59:45;10.15;;;5.63;;
69779;SDS011;57052;55.602;38.096;2022-09-29T04:02:10;13.85;;;5.40;;
69779;SDS011;57052;55.602;38.096;2022-09-29T04:04:36;10.60;;;5.68;;
69779;SDS011;57052;55.602;38.096;2022-09-29T04:07:01;16.25;;;6.28;;
69779;SDS011;57052;55.602;38.096;2022-09-29T04:09:27;12.15;;;6.10;;
69779;SDS011;57052;55.602;38.096;2022-09-29T04:11:53;12.73;;;5.65;;
69779;SDS011;57052;55.602;38.096;2022-09-29T04:14:18;12.75;;;5.13;;
69779;SDS011;57052;55.602;38.096;2022-09-29T04:16:44;13.60;;;5.80;;
69779;SDS011;57052;55.602;38.096;2022-09-29T04:19:12;10.57;;;5.47;;
69779;SDS011;57052;55.602;38.096;2022-09-29T04:21:37;11.45;;;5.30;;
69779;SDS011;57052;55.602;38.096;2022-09-29T04:24:03;11.65;;;5.43;;
69779;SDS011;57052;55.602;38.096;2022-09-29T04:26:28;9.80;;;5.50;;
69779;SDS011;57052;55.602;38.096;2022-09-29T04:28:54;12.15;;;5.43;;
69779;SDS011;57052;55.602;38.096;2022-09-29T04:31:20;9.77;;;5.30;;
69779;SDS011;57052;55.602;38.096;2022-09-29T04:33:45;9.25;;;4.80;;
69779;SDS011;57052;55.602;38.096;2022-09-29T04:36:11;9.02;;;4.72;;
69779;SDS011;57052;55.602;38.096;2022-09-29T04:38:37;10.43;;;4.75;;
69779;SDS011;57052;55.602;38.096;2022-09-29T04:41:02;8.00;;;4.32;;
69779;SDS011;57052;55.602;38.096;2022-09-29T04:43:28;7.00;;;4.20;;
69779;SDS011;57052;55.602;38.096;2022-09-29T04:45:59;8.55;;;4.63;;
69779;SDS011;57052;55.602;38.096;2022-09-29T04:48:26;8.55;;;4.85;;
69779;SDS011;57052;55.602;38.096;2022-09-29T04:50:51;9.05;;;5.03;;
69779;SDS011;57052;55.602;38.096;2022-09-29T04:53:19;9.88;;;4.63;;
69779;SDS011;57052;55.602;38.096;2022-09-29T04:55:44;8.75;;;4.65;;
69779;SDS011;57052;55.602;38.096;2022-09-29T04:58:10;8.63;;;4.47;;
69779;SDS011;57052;55.602;38.096;2022-09-29T05:00:35;8.02;;;4.78;;
69779;SDS011;57052;55.602;38.096;2022-09-29T05:03:01;8.00;;;4.35;;
69779;SDS011;57052;55.602;38.096;2022-09-29T05:05:27;9.07;;;4.28;;
69779;SDS011;57052;55.602;38.096;2022-09-29T05:07:53;10.88;;;4.97;;
69779;SDS011;57052;55.602;38.096;2022-09-29T05:10:19;11.00;;;5.20;;
69779;SDS011;57052;55.602;38.096;2022-09-29T05:12:48;9.50;;;5.00;;
69779;SDS011;57052;55.602;38.096;2022-09-29T05:15:14;7.78;;;4.65;;
69779;SDS011;57052;55.602;38.096;2022-09-29T05:17:41;9.68;;;4.50;;
69779;SDS011;57052;55.602;38.096;2022-09-29T05:20:07;10.45;;;5.18;;
69779;SDS011;57052;55.602;38.096;2022-09-29T05:22:33;7.43;;;4.70;;
69779;SDS011;57052;55.602;38.096;2022-09-29T05:24:58;11.05;;;6.15;;
69779;SDS011;57052;55.602;38.096;2022-09-29T05:27:24;11.50;;;6.05;;
69779;SDS011;57052;55.602;38.096;2022-09-29T05:29:49;11.43;;;5.30;;
69779;SDS011;57052;55.602;38.096;2022-09-29T05:32:15;11.07;;;5.30;;
69779;SDS011;57052;55.602;38.096;2022-09-29T05:34:41;11.50;;;5.18;;
69779;SDS011;57052;55.602;38.096;2022-09-29T05:37:06;10.77;;;5.03;;
69779;SDS011;57052;55.602;38.096;2022-09-29T05:39:32;10.77;;;5.10;;
69779;SDS011;57052;55.602;38.096;2022-09-29T05:41:59;11.00;;;5.05;;
69779;SDS011;57052;55.602;38.096;2022-09-29T05:44:26;12.32;;;6.72;;
69779;SDS011;57052;55.602;38.096;2022-09-29T05:46:52;15.60;;;6.70;;
69779;SDS011;57052;55.602;38.096;2022-09-29T05:49:18;13.55;;;7.72;;
69779;SDS011;57052;55.602;38.096;2022-09-29T05:51:43;14.07;;;7.10;;
69779;SDS011;57052;55.602;38.096;2022-09-29T05:54:09;13.05;;;7.15;;
69779;SDS011;57052;55.602;38.096;2022-09-29T05:56:35;23.17;;;7.70;;
69779;SDS011;57052;55.602;38.096;2022-09-29T05:59:01;11.57;;;5.97;;
69779;SDS011;57052;55.602;38.096;2022-09-29T06:01:26;9.35;;;5.20;;
69779;SDS011;57052;55.602;38.096;2022-09-29T06:03:55;8.35;;;5.10;;
69779;SDS011;57052;55.602;38.096;2022-09-29T06:06:22;9.00;;;4.63;;
69779;SDS011;57052;55.602;38.096;2022-09-29T06:08:49;8.40;;;4.53;;
69779;SDS011;57052;55.602;38.096;2022-09-29T06:11:17;8.57;;;4.45;;
69779;SDS011;57052;55.602;38.096;2022-09-29T06:13:45;9.27;;;4.05;;
69779;SDS011;57052;55.602;38.096;2022-09-29T06:16:12;9.90;;;4.30;;
69779;SDS011;57052;55.602;38.096;2022-09-29T06:18:39;6.90;;;4.15;;
69779;SDS011;57052;55.602;38.096;2022-09-29T06:21:06;8.77;;;4.40;;
69779;SDS011;57052;55.602;38.096;2022-09-29T06:23:33;8.05;;;4.97;;
69779;SDS011;57052;55.602;38.096;2022-09-29T06:26:00;8.43;;;4.90;;
69779;SDS011;57052;55.602;38.096;2022-09-29T06:28:28;9.43;;;5.22;;
69779;SDS011;57052;55.602;38.096;2022-09-29T06:30:58;8.63;;;4.90;;
69779;SDS011;57052;55.602;38.096;2022-09-29T06:33:25;10.48;;;5.47;;
69779;SDS011;57052;55.602;38.096;2022-09-29T06:35:52;9.40;;;5.22;;
69779;SDS011;57052;55.602;38.096;2022-09-29T06:38:36;9.05;;;5.53;;
69779;SDS011;57052;55.602;38.096;2022-09-29T06:41:02;11.43;;;5.20;;
69779;SDS011;57052;55.602;38.096;2022-09-29T06:43:27;11.82;;;5.35;;
69779;SDS011;57052;55.602;38.096;2022-09-29T06:45:53;8.23;;;4.93;;
69779;SDS011;57052;55.602;38.096;2022-09-29T06:48:19;8.65;;;4.75;;
69779;SDS011;57052;55.602;38.096;2022-09-29T06:50:44;9.40;;;4.78;;
69779;SDS011;57052;55.602;38.096;2022-09-29T06:53:10;10.07;;;4.63;;
69779;SDS011;57052;55.602;38.096;2022-09-29T06:55:35;8.10;;;4.35;;
69779;SDS011;57052;55.602;38.096;2022-09-29T06:58:01;9.45;;;4.47;;
69779;SDS011;57052;55.602;38.096;2022-09-29T07:00:26;9.88;;;4.85;;
69779;SDS011;57052;55.602;38.096;2022-09-29T07:02:52;10.38;;;4.63;;
69779;SDS011;57052;55.602;38.096;2022-09-29T07:05:19;7.88;;;4.90;;
69779;SDS011;57052;55.602;38.096;2022-09-29T07:07:46;7.60;;;4.57;;
69779;SDS011;57052;55.602;38.096;2022-09-29T07:10:12;6.78;;;4.07;;
69779;SDS011;57052;55.602;38.096;2022-09-29T07:12:40;9.05;;;4.85;;
69779;SDS011;57052;55.602;38.096;2022-09-29T07:15:06;8.60;;;4.75;;
69779;SDS011;57052;55.602;38.096;2022-09-29T07:17:32;8.18;;;4.65;;
69779;SDS011;57052;55.602;38.096;2022-09-29T07:19:57;8.65;;;4.57;;
69779;SDS011;57052;55.602;38.096;2022-09-29T07:22:23;6.85;;;3.97;;
69779;SDS011;57052;55.602;38.096;2022-09-29T07:24:49;7.72;;;4.05;;
69779;SDS011;57052;55.602;38.096;2022-09-29T07:27:17;9.20;;;4.35;;
69779;SDS011;57052;55.602;38.096;2022-09-29T07:29:51;8.40;;;4.50;;
69779;SDS011;57052;55.602;38.096;2022-09-29T07:32:17;7.93;;;4.28;;
69779;SDS011;57052;55.602;38.096;2022-09-29T07:34:43;7.75;;;4.40;;
69779;SDS011;57052;55.602;38.096;2022-09-29T07:37:09;10.55;;;5.15;;
69779;SDS011;57052;55.602;38.096;2022-09-29T07:39:35;8.77;;;4.50;;
69779;SDS011;57052;55.602;38.096;2022-09-29T07:42:00;7.93;;;4.50;;
69779;SDS011;57052;55.602;38.096;2022-09-29T07:44:27;10.15;;;5.15;;
69779;SDS011;57052;55.602;38.096;2022-09-29T07:46:56;9.80;;;4.40;;
69779;SDS011;57052;55.602;38.096;2022-09-29T07:49:21;10.60;;;4.75;;
69779;SDS011;57052;55.602;38.096;2022-09-29T07:51:47;10.30;;;4.72;;
69779;SDS011;57052;55.602;38.096;2022-09-29T07:54:12;9.00;;;4.97;;
69779;SDS011;57052;55.602;38.096;2022-09-29T07:56:38;8.88;;;5.00;;
69779;SDS011;57052;55.602;38.096;2022-09-29T07:59:03;8.88;;;5.00;;
69779;SDS011;57052;55.602;38.096;2022-09-29T08:01:29;9.75;;;4.82;;
69779;SDS011;57052;55.602;38.096;2022-09-29T08:03:55;8.68;;;4.72;;
69779;SDS011;57052;55.602;38.096;2022-09-29T08:06:22;8.95;;;4.97;;
69779;SDS011;57052;55.602;38.096;2022-09-29T08:08:50;9.75;;;4.95;;
69779;SDS011;57052;55.602;38.096;2022-09-29T08:11:16;9.77;;;5.13;;
69779;SDS011;57052;55.602;38.096;2022-09-29T08:13:46;10.57;;;5.03;;
69779;SDS011;57052;55.602;38.096;2022-09-29T08:16:14;11.20;;;5.38;;
69779;SDS011;57052;55.602;38.096;2022-09-29T08:18:40;9.70;;;5.35;;
69779;SDS011;57052;55.602;38.096;2022-09-29T08:21:07;10.27;;;5.55;;
69779;SDS011;57052;55.602;38.096;2022-09-29T08:23:36;11.65;;;5.10;;
69779;SDS011;57052;55.602;38.096;2022-09-29T08:26:04;12.20;;;5.25;;
69779;SDS011;57052;55.602;38.096;2022-09-29T08:28:32;12.10;;;6.07;;
69779;SDS011;57052;55.602;38.096;2022-09-29T08:31:02;9.48;;;5.50;;
69779;SDS011;57052;55.602;38.096;2022-09-29T08:33:39;11.38;;;5.55;;
69779;SDS011;57052;55.602;38.096;2022-09-29T08:36:05;12.07;;;6.05;;
69779;SDS011;57052;55.602;38.096;2022-09-29T08:38:39;9.65;;;5.25;;
69779;SDS011;57052;55.602;38.096;2022-09-29T08:41:25;13.63;;;5.78;;
69779;SDS011;57052;55.602;38.096;2022-09-29T08:46:43;11.35;;;6.05;;
69779;SDS011;57052;55.602;38.096;2022-09-29T08:49:34;12.82;;;5.72;;
69779;SDS011;57052;55.602;38.096;2022-09-29T08:52:11;13.20;;;5.78;;
69779;SDS011;57052;55.602;38.096;2022-09-29T08:54:44;12.10;;;5.78;;
69779;SDS011;57052;55.602;38.096;2022-09-29T08:57:12;11.05;;;5.82;;
69779;SDS011;57052;55.602;38.096;2022-09-29T08:59:43;11.50;;;5.85;;
69779;SDS011;57052;55.602;38.096;2022-09-29T09:05:13;14.48;;;6.35;;
69779;SDS011;57052;55.602;38.096;2022-09-29T09:08:07;12.52;;;6.63;;
69779;SDS011;57052;55.602;38.096;2022-09-29T09:11:30;13.52;;;6.13;;
69779;SDS011;57052;55.602;38.096;2022-09-29T09:14:30;13.93;;;6.38;;
69779;SDS011;57052;55.602;38.096;2022-09-29T09:17:23;13.60;;;6.38;;
69779;SDS011;57052;55.602;38.096;2022-09-29T09:22:55;13.75;;;6.47;;
69779;SDS011;57052;55.602;38.096;2022-09-29T09:25:30;13.20;;;7.03;;
69779;SDS011;57052;55.602;38.096;2022-09-29T09:28:03;14.15;;;6.78;;
69779;SDS011;57052;55.602;38.096;2022-09-29T09:30:32;16.80;;;7.87;;
69779;SDS011;57052;55.602;38.096;2022-09-29T09:33:12;14.52;;;6.93;;
69779;SDS011;57052;55.602;38.096;2022-09-29T09:35:53;16.05;;;7.25;;
69779;SDS011;57052;55.602;38.096;2022-09-29T09:38:26;16.67;;;6.45;;
69779;SDS011;57052;55.602;38.096;2022-09-29T09:41:06;18.17;;;7.60;;
69779;SDS011;57052;55.602;38.096;2022-09-29T09:43:36;12.80;;;7.10;;
69779;SDS011;57052;55.602;38.096;2022-09-29T09:54:36;14.52;;;6.85;;
69779;SDS011;57052;55.602;38.096;2022-09-29T10:00:11;12.05;;;6.18;;
69779;SDS011;57052;55.602;38.096;2022-09-29T10:02:43;16.30;;;7.22;;
69779;SDS011;57052;55.602;38.096;2022-09-29T10:05:12;16.15;;;7.50;;
69779;SDS011;57052;55.602;38.096;2022-09-29T10:07:41;11.75;;;5.82;;
69779;SDS011;57052;55.602;38.096;2022-09-29T10:10:15;13.25;;;6.25;;
69779;SDS011;57052;55.602;38.096;2022-09-29T10:12:57;13.80;;;5.93;;
69779;SDS011;57052;55.602;38.096;2022-09-29T10:18:04;16.17;;;7.97;;
69779;SDS011;57052;55.602;38.096;2022-09-29T10:20:37;15.73;;;7.85;;
69779;SDS011;57052;55.602;38.096;2022-09-29T10:26:06;17.63;;;7.70;;
69779;SDS011;57052;55.602;38.096;2022-09-29T10:28:43;13.85;;;7.28;;
69779;SDS011;57052;55.602;38.096;2022-09-29T10:31:17;14.93;;;7.13;;
69779;SDS011;57052;55.602;38.096;2022-09-29T10:33:49;17.48;;;7.50;;
69779;SDS011;57052;55.602;38.096;2022-09-29T10:36:21;13.18;;;7.22;;
69779;SDS011;57052;55.602;38.096;2022-09-29T10:38:50;14.90;;;7.15;;
69779;SDS011;57052;55.602;38.096;2022-09-29T10:41:17;13.63;;;6.95;;
69779;SDS011;57052;55.602;38.096;2022-09-29T10:43:44;15.20;;;7.35;;
69779;SDS011;57052;55.602;38.096;2022-09-29T10:57:44;15.45;;;7.75;;
69779;SDS011;57052;55.602;38.096;2022-09-29T11:00:25;15.43;;;7.90;;
69779;SDS011;57052;55.602;38.096;2022-09-29T11:02:52;13.40;;;6.80;;
69779;SDS011;57052;55.602;38.096;2022-09-29T11:05:28;13.13;;;6.90;;
69779;SDS011;57052;55.602;38.096;2022-09-29T11:07:54;14.30;;;7.00;;
69779;SDS011;57052;55.602;38.096;2022-09-29T11:10:26;16.75;;;6.70;;
69779;SDS011;57052;55.602;38.096;2022-09-29T11:12:52;15.25;;;7.05;;
69779;SDS011;57052;55.602;38.096;2022-09-29T11:15:26;13.40;;;6.60;;
69779;SDS011;57052;55.602;38.096;2022-09-29T11:17:54;14.63;;;6.90;;
69779;SDS011;57052;55.602;38.096;2022-09-29T11:20:22;13.20;;;6.35;;
69779;SDS011;57052;55.602;38.096;2022-09-29T11:25:34;17.48;;;6.68;;
69779;SDS011;57052;55.602;38.096;2022-09-29T11:42:18;13.75;;;7.00;;
69779;SDS011;57052;55.602;38.096;2022-09-29T11:50:12;11.57;;;6.18;;
69779;SDS011;57052;55.602;38.096;2022-09-29T12:02:17;16.92;;;6.70;;
69779;SDS011;57052;55.602;38.096;2022-09-29T12:04:57;13.63;;;7.00;;
69779;SDS011;57052;55.602;38.096;2022-09-29T12:10:16;16.58;;;6.45;;
69779;SDS011;57052;55.602;38.096;2022-09-29T12:18:39;13.52;;;6.65;;
69779;SDS011;57052;55.602;38.096;2022-09-29T12:21:12;17.20;;;6.45;;
69779;SDS011;57052;55.602;38.096;2022-09-29T12:23:39;16.65;;;7.03;;
69779;SDS011;57052;55.602;38.096;2022-09-29T12:26:15;17.00;;;7.70;;
69779;SDS011;57052;55.602;38.096;2022-09-29T12:28:46;16.50;;;7.82;;
69779;SDS011;57052;55.602;38.096;2022-09-29T12:33:56;22.30;;;10.88;;
69779;SDS011;57052;55.602;38.096;2022-09-29T12:36:29;20.30;;;11.48;;
69779;SDS011;57052;55.602;38.096;2022-09-29T12:44:36;12.85;;;8.02;;
69779;SDS011;57052;55.602;38.096;2022-09-29T12:52:36;15.63;;;7.80;;
69779;SDS011;57052;55.602;38.096;2022-09-29T12:55:27;13.98;;;7.38;;
69779;SDS011;57052;55.602;38.096;2022-09-29T12:58:05;14.15;;;7.15;;
69779;SDS011;57052;55.602;38.096;2022-09-29T13:00:38;12.93;;;7.30;;
69779;SDS011;57052;55.602;38.096;2022-09-29T13:03:24;12.93;;;7.18;;
69779;SDS011;57052;55.602;38.096;2022-09-29T13:28:21;12.07;;;5.75;;
69779;SDS011;57052;55.602;38.096;2022-09-29T13:30:53;10.45;;;6.00;;
69779;SDS011;57052;55.602;38.096;2022-09-29T13:33:25;9.85;;;5.63;;
69779;SDS011;57052;55.602;38.096;2022-09-29T13:35:51;13.02;;;6.10;;
69779;SDS011;57052;55.602;38.096;2022-09-29T13:41:08;11.18;;;5.90;;
69779;SDS011;57052;55.602;38.096;2022-09-29T13:51:43;10.38;;;6.03;;
69779;SDS011;57052;55.602;38.096;2022-09-29T13:57:28;12.60;;;6.50;;
69779;SDS011;57052;55.602;38.096;2022-09-29T13:59:44;12.55;;;6.57;;
69779;SDS011;57052;55.602;38.096;2022-09-29T14:05:04;13.00;;;6.72;;
69779;SDS011;57052;55.602;38.096;2022-09-29T14:12:58;14.55;;;7.30;;
69779;SDS011;57052;55.602;38.096;2022-09-29T14:15:31;14.18;;;7.05;;
69779;SDS011;57052;55.602;38.096;2022-09-29T14:18:05;15.02;;;6.95;;
69779;SDS011;57052;55.602;38.096;2022-09-29T14:20:43;14.80;;;6.60;;
69779;SDS011;57052;55.602;38.096;2022-09-29T14:31:57;13.30;;;6.30;;
69779;SDS011;57052;55.602;38.096;2022-09-29T14:34:26;11.57;;;6.40;;
69779;SDS011;57052;55.602;38.096;2022-09-29T14:36:55;11.52;;;6.75;;
69779;SDS011;57052;55.602;38.096;2022-09-29T14:39:23;13.43;;;6.40;;
69779;SDS011;57052;55.602;38.096;2022-09-29T14:41:49;16.85;;;6.68;;
69779;SDS011;57052;55.602;38.096;2022-09-29T14:44:17;11.95;;;6.60;;
69779;SDS011;57052;55.602;38.096;2022-09-29T14:47:16;15.25;;;6.40;;
69779;SDS011;57052;55.602;38.096;2022-09-29T14:50:20;13.70;;;7.07;;
69779;SDS011;57052;55.602;38.096;2022-09-29T14:58:32;13.40;;;7.18;;
69779;SDS011;57052;55.602;38.096;2022-09-29T15:01:29;12.90;;;7.15;;
69779;SDS011;57052;55.602;38.096;2022-09-29T15:03:56;14.85;;;7.18;;
69779;SDS011;57052;55.602;38.096;2022-09-29T15:06:29;14.05;;;7.10;;
69779;SDS011;57052;55.602;38.096;2022-09-29T15:14:16;14.23;;;7.20;;
69779;SDS011;57052;55.602;38.096;2022-09-29T15:19:54;14.73;;;7.38;;
69779;SDS011;57052;55.602;38.096;2022-09-29T15:25:24;13.98;;;7.13;;
69779;SDS011;57052;55.602;38.096;2022-09-29T15:28:00;13.63;;;7.57;;
69779;SDS011;57052;55.602;38.096;2022-09-29T15:30:30;18.20;;;8.27;;
69779;SDS011;57052;55.602;38.096;2022-09-29T15:33:08;15.30;;;7.70;;
69779;SDS011;57052;55.602;38.096;2022-09-29T15:35:43;13.70;;;7.88;;
69779;SDS011;57052;55.602;38.096;2022-09-29T15:38:17;13.02;;;7.18;;
69779;SDS011;57052;55.602;38.096;2022-09-29T15:40:54;13.05;;;6.95;;
69779;SDS011;57052;55.602;38.096;2022-09-29T15:43:22;16.30;;;7.85;;
69779;SDS011;57052;55.602;38.096;2022-09-29T15:46:01;22.45;;;11.07;;
69779;SDS011;57052;55.602;38.096;2022-09-29T15:48:36;17.25;;;8.48;;
69779;SDS011;57052;55.602;38.096;2022-09-29T15:51:02;16.50;;;7.50;;
69779;SDS011;57052;55.602;38.096;2022-09-29T15:53:28;15.35;;;7.68;;
69779;SDS011;57052;55.602;38.096;2022-09-29T15:55:56;16.23;;;7.53;;
69779;SDS011;57052;55.602;38.096;2022-09-29T16:01:04;15.50;;;7.28;;
69779;SDS011;57052;55.602;38.096;2022-09-29T16:06:02;16.20;;;8.35;;
69779;SDS011;57052;55.602;38.096;2022-09-29T16:08:36;16.83;;;7.80;;
69779;SDS011;57052;55.602;38.096;2022-09-29T16:11:07;16.35;;;8.30;;
69779;SDS011;57052;55.602;38.096;2022-09-29T16:13:40;15.15;;;8.43;;
69779;SDS011;57052;55.602;38.096;2022-09-29T16:16:13;18.35;;;8.40;;
69779;SDS011;57052;55.602;38.096;2022-09-29T16:18:42;18.88;;;8.82;;
69779;SDS011;57052;55.602;38.096;2022-09-29T16:21:15;16.57;;;8.03;;
69779;SDS011;57052;55.602;38.096;2022-09-29T16:26:14;21.27;;;9.25;;
69779;SDS011;57052;55.602;38.096;2022-09-29T16:29:21;15.10;;;8.68;;
69779;SDS011;57052;55.602;38.096;2022-09-29T16:31:43;22.15;;;8.93;;
69779;SDS011;57052;55.602;38.096;2022-09-29T16:36:48;19.90;;;9.45;;
69779;SDS011;57052;55.602;38.096;2022-09-29T16:39:22;22.83;;;9.55;;
69779;SDS011;57052;55.602;38.096;2022-09-29T16:41:51;18.35;;;9.20;;
69779;SDS011;57052;55.602;38.096;2022-09-29T16:44:32;21.48;;;9.40;;
69779;SDS011;57052;55.602;38.096;2022-09-29T16:47:11;19.52;;;8.93;;
69779;SDS011;57052;55.602;38.096;2022-09-29T16:49:48;20.45;;;9.05;;
69779;SDS011;57052;55.602;38.096;2022-09-29T16:54:53;20.02;;;10.23;;
69779;SDS011;57052;55.602;38.096;2022-09-29T17:00:25;20.65;;;10.18;;
69779;SDS011;57052;55.602;38.096;2022-09-29T17:02:51;20.17;;;10.38;;
69779;SDS011;57052;55.602;38.096;2022-09-29T17:05:19;20.05;;;9.57;;
69779;SDS011;57052;55.602;38.096;2022-09-29T17:07:46;20.23;;;9.95;;
69779;SDS011;57052;55.602;38.096;2022-09-29T17:10:15;18.92;;;10.60;;
69779;SDS011;57052;55.602;38.096;2022-09-29T17:12:44;18.15;;;9.32;;
69779;SDS011;57052;55.602;38.096;2022-09-29T17:15:14;22.95;;;10.52;;
69779;SDS011;57052;55.602;38.096;2022-09-29T17:17:42;22.25;;;10.35;;
69779;SDS011;57052;55.602;38.096;2022-09-29T17:20:14;20.98;;;9.80;;
69779;SDS011;57052;55.602;38.096;2022-09-29T17:22:44;22.05;;;9.48;;
69779;SDS011;57052;55.602;38.096;2022-09-29T17:25:11;19.85;;;9.65;;
69779;SDS011;57052;55.602;38.096;2022-09-29T17:27:38;23.50;;;10.10;;
69779;SDS011;57052;55.602;38.096;2022-09-29T17:30:23;21.70;;;9.95;;
69779;SDS011;57052;55.602;38.096;2022-09-29T17:32:51;22.35;;;10.52;;
69779;SDS011;57052;55.602;38.096;2022-09-29T17:35:19;20.40;;;10.25;;
69779;SDS011;57052;55.602;38.096;2022-09-29T17:37:48;21.27;;;9.70;;
69779;SDS011;57052;55.602;38.096;2022-09-29T17:42:46;20.05;;;10.07;;
69779;SDS011;57052;55.602;38.096;2022-09-29T17:45:16;26.25;;;10.52;;
69779;SDS011;57052;55.602;38.096;2022-09-29T17:47:43;19.75;;;10.48;;
69779;SDS011;57052;55.602;38.096;2022-09-29T17:52:50;20.00;;;10.40;;
69779;SDS011;57052;55.602;38.096;2022-09-29T17:55:17;19.77;;;10.93;;
69779;SDS011;57052;55.602;38.096;2022-09-29T17:57:44;19.30;;;10.13;;
69779;SDS011;57052;55.602;38.096;2022-09-29T18:00:19;21.27;;;10.68;;
69779;SDS011;57052;55.602;38.096;2022-09-29T18:02:49;23.67;;;11.20;;
69779;SDS011;57052;55.602;38.096;2022-09-29T18:05:19;26.08;;;11.43;;
69779;SDS011;57052;55.602;38.096;2022-09-29T18:07:48;25.10;;;11.40;;
69779;SDS011;57052;55.602;38.096;2022-09-29T18:10:17;23.55;;;10.38;;
69779;SDS011;57052;55.602;38.096;2022-09-29T18:12:46;22.52;;;11.30;;
69779;SDS011;57052;55.602;38.096;2022-09-29T18:15:12;22.80;;;11.02;;
69779;SDS011;57052;55.602;38.096;2022-09-29T18:17:39;24.88;;;11.00;;
69779;SDS011;57052;55.602;38.096;2022-09-29T18:20:25;25.00;;;10.88;;
69779;SDS011;57052;55.602;38.096;2022-09-29T18:22:54;25.08;;;11.27;;
69779;SDS011;57052;55.602;38.096;2022-09-29T18:25:23;22.88;;;11.38;;